Hanna City, Illinois
Current Conditions -  °F | °C
As of 10:54 AM on Sunday 21 Dec 2014 (Local Time) from KPIA Reporting Station
Overcast Overcast  
Wind Chill: 32°   Ceiling: 2600
Heat Index: 40°   Visibility: 9mi
Dew Point: 31°   Wind: 15mph
Humidity: 70%   Direction: 170°S
Pressure: 30.15"   Gusts: NA
Location:  40.69°N, 89.8°W
Report Text: KPIA 211654Z 17013KT 9SM OVC026 04/M01 A3015 RMK AO2 SLP215 T00441006
Loading
Personal Weather Stations






























Interactive Weather Map New forecast layout! Learn more

10-Day Weather Forecast

Advertisements
Track Severe Weather on mobile